createdAt,value
2023-03-21T00:02:26.190Z,8.77
2023-03-21T00:05:29.621Z,6.40
2023-03-21T00:08:34.378Z,6.40
2023-03-21T00:11:37.704Z,9.50
2023-03-21T00:14:41.060Z,6.93
2023-03-21T00:17:44.797Z,11.75
2023-03-21T00:21:12.658Z,9.98
2023-03-21T00:24:23.208Z,7.75
2023-03-21T00:27:47.299Z,14.18
2023-03-21T00:30:51.699Z,8.70
2023-03-21T00:33:57.211Z,9.95
2023-03-21T00:37:01.550Z,9.13
2023-03-21T00:40:16.385Z,11.52
2023-03-21T00:43:30.049Z,11.02
2023-03-21T00:46:44.035Z,8.82
2023-03-21T00:49:48.769Z,11.98
2023-03-21T00:52:52.142Z,10.23
2023-03-21T00:55:56.990Z,11.20
2023-03-21T00:59:00.329Z,13.50
2023-03-21T01:02:07.147Z,11.18
2023-03-21T01:05:11.345Z,11.23
2023-03-21T01:08:26.568Z,14.85
2023-03-21T01:11:34.269Z,11.43
2023-03-21T01:14:37.664Z,12.02
2023-03-21T01:17:41.410Z,11.52
2023-03-21T01:20:45.199Z,12.15
2023-03-21T01:23:48.542Z,14.15
2023-03-21T01:26:53.220Z,11.98
2023-03-21T01:29:56.775Z,15.55
2023-03-21T01:33:00.611Z,13.93
2023-03-21T01:36:12.664Z,14.85
2023-03-21T01:39:17.392Z,16.67
2023-03-21T01:42:24.877Z,16.20
2023-03-21T01:45:47.155Z,13.13
2023-03-21T01:48:56.293Z,15.90
2023-03-21T01:52:06.605Z,13.98
2023-03-21T01:55:16.337Z,15.30
2023-03-21T01:58:31.867Z,14.07
2023-03-21T02:01:46.641Z,16.33
2023-03-21T02:04:50.960Z,14.95
2023-03-21T02:07:57.786Z,17.73
2023-03-21T02:11:01.472Z,14.40
2023-03-21T02:14:26.588Z,15.35
2023-03-21T02:17:39.012Z,17.10
2023-03-21T02:21:04.116Z,15.38
2023-03-21T02:24:27.073Z,14.65
2023-03-21T02:27:31.295Z,15.43
2023-03-21T02:30:52.461Z,13.48
2023-03-21T02:34:18.862Z,14.60
2023-03-21T02:37:36.966Z,13.57
2023-03-21T02:40:43.964Z,18.88
2023-03-21T02:43:49.080Z,14.18
2023-03-21T02:47:04.722Z,16.70
2023-03-21T02:50:14.012Z,19.00
2023-03-21T02:53:21.252Z,16.33
2023-03-21T02:56:27.143Z,18.50
2023-03-21T02:59:35.760Z,18.63
2023-03-21T03:02:42.422Z,17.48
2023-03-21T03:05:47.765Z,15.75
2023-03-21T03:09:15.440Z,17.55
2023-03-21T03:12:23.511Z,14.98
2023-03-21T03:15:35.020Z,16.20
2023-03-21T03:18:43.562Z,17.00
2023-03-21T03:21:49.854Z,18.23
2023-03-21T03:24:59.589Z,17.30
2023-03-21T03:28:07.109Z,13.18
2023-03-21T03:31:14.363Z,14.57
2023-03-21T03:34:26.203Z,14.10
2023-03-21T03:37:32.890Z,13.95
2023-03-21T03:40:41.052Z,15.77
2023-03-21T03:44:03.076Z,13.18
2023-03-21T03:47:22.949Z,15.52
2023-03-21T03:50:36.574Z,15.35
2023-03-21T03:53:44.471Z,15.27
2023-03-21T03:56:48.061Z,13.88
2023-03-21T03:59:52.752Z,16.67
2023-03-21T04:03:01.169Z,16.02
2023-03-21T04:06:05.042Z,13.02
2023-03-21T04:09:19.054Z,17.05
2023-03-21T04:12:24.097Z,14.43
2023-03-21T04:15:45.428Z,14.73
2023-03-21T04:18:52.443Z,15.20
2023-03-21T04:21:55.806Z,13.30
2023-03-21T04:25:00.556Z,15.80
2023-03-21T04:28:05.492Z,16.30
2023-03-21T04:31:31.311Z,14.93
2023-03-21T04:34:43.556Z,15.65
2023-03-21T04:37:47.946Z,16.45
2023-03-21T04:40:51.862Z,22.63
2023-03-21T04:43:55.701Z,13.43
2023-03-21T04:47:01.158Z,14.52
2023-03-21T04:50:05.133Z,18.73
2023-03-21T04:53:08.422Z,19.38
2023-03-21T04:56:12.186Z,16.02
2023-03-21T04:59:16.548Z,16.85
2023-03-21T05:02:21.170Z,15.07
2023-03-21T05:05:24.581Z,17.13
2023-03-21T05:08:28.878Z,17.45
2023-03-21T05:11:32.711Z,13.73
2023-03-21T05:14:36.224Z,18.83
2023-03-21T05:17:42.994Z,13.07
2023-03-21T05:20:53.996Z,15.63
2023-03-21T05:23:58.271Z,14.88
2023-03-21T05:27:02.664Z,13.65
2023-03-21T05:30:10.236Z,18.15
2023-03-21T05:33:15.536Z,17.65
2023-03-21T05:36:19.243Z,14.77
2023-03-21T05:39:22.848Z,15.18
2023-03-21T05:42:36.874Z,15.35
2023-03-21T05:45:49.154Z,18.10
2023-03-21T05:48:55.781Z,13.80
2023-03-21T05:52:00.526Z,13.90
2023-03-21T05:55:04.036Z,15.63
2023-03-21T05:58:08.684Z,13.63
2023-03-21T06:01:12.379Z,17.00
2023-03-21T06:04:20.634Z,16.73
2023-03-21T06:07:24.275Z,13.98
2023-03-21T06:10:27.671Z,17.00
2023-03-21T06:13:32.778Z,16.52
2023-03-21T06:16:36.527Z,17.52
2023-03-21T06:19:41.480Z,15.13
2023-03-21T06:22:51.119Z,17.33
2023-03-21T06:25:54.419Z,18.60
2023-03-21T06:29:00.665Z,16.63
2023-03-21T06:32:04.316Z,17.98
2023-03-21T06:35:09.737Z,18.17
2023-03-21T06:38:14.777Z,16.10
2023-03-21T06:41:19.540Z,21.77
2023-03-21T06:44:32.652Z,21.83
2023-03-21T06:47:40.585Z,15.63
2023-03-21T06:50:52.580Z,18.52
2023-03-21T06:53:57.784Z,17.90
2023-03-21T06:57:15.539Z,13.10
2023-03-21T07:00:19.645Z,17.08
2023-03-21T07:03:24.452Z,13.35
2023-03-21T07:06:30.150Z,16.85
2023-03-21T07:09:33.751Z,12.70
2023-03-21T07:12:41.733Z,14.70
2023-03-21T07:15:54.086Z,15.02
2023-03-21T07:18:57.428Z,14.77
2023-03-21T07:22:02.225Z,14.77
2023-03-21T07:25:06.240Z,12.80
2023-03-21T07:28:15.322Z,16.02
2023-03-21T07:31:19.625Z,17.65
2023-03-21T07:34:25.054Z,15.18
2023-03-21T07:37:29.930Z,14.65
2023-03-21T07:40:33.431Z,12.77
2023-03-21T07:43:39.182Z,12.77
2023-03-21T07:46:46.141Z,15.93
2023-03-21T07:49:49.447Z,16.90
2023-03-21T07:52:54.356Z,13.85
2023-03-21T07:55:57.737Z,17.65
2023-03-21T07:59:01.196Z,16.67
2023-03-21T08:02:04.594Z,15.88
2023-03-21T08:05:08.202Z,13.90
2023-03-21T08:08:13.054Z,13.70
2023-03-21T08:11:17.986Z,15.05
2023-03-21T08:14:21.360Z,15.63
2023-03-21T08:17:24.699Z,16.88
2023-03-21T08:20:28.090Z,21.30
2023-03-21T08:23:32.953Z,20.23
2023-03-21T08:26:36.289Z,14.40
2023-03-21T08:29:42.156Z,17.02
2023-03-21T08:32:45.912Z,15.98
2023-03-21T08:35:49.256Z,18.48
2023-03-21T08:38:57.007Z,19.98
2023-03-21T08:42:00.674Z,16.17
2023-03-21T08:45:04.875Z,19.35
2023-03-21T08:48:08.308Z,15.93
2023-03-21T08:51:11.888Z,17.10
2023-03-21T08:54:23.248Z,17.17
2023-03-21T08:57:26.617Z,15.43
2023-03-21T09:00:30.583Z,14.35
2023-03-21T09:03:33.843Z,15.75
2023-03-21T09:06:37.112Z,15.82
2023-03-21T09:09:42.282Z,15.00
2023-03-21T09:12:45.793Z,14.63
2023-03-21T09:15:49.364Z,15.70
2023-03-21T09:18:55.567Z,13.77
2023-03-21T09:21:59.706Z,14.00
2023-03-21T09:25:07.406Z,11.95
2023-03-21T09:28:11.345Z,13.05
2023-03-21T09:31:16.355Z,10.48
2023-03-21T09:34:19.775Z,18.60
2023-03-21T09:37:23.362Z,10.00
2023-03-21T09:40:34.192Z,12.15
2023-03-21T09:43:41.403Z,10.23
2023-03-21T09:46:47.391Z,11.48
2023-03-21T09:49:56.548Z,12.68
2023-03-21T09:53:03.656Z,11.75
2023-03-21T09:56:13.157Z,11.75
2023-03-21T09:59:21.832Z,10.60
2023-03-21T10:02:35.947Z,12.88
2023-03-21T10:05:45.799Z,10.32
2023-03-21T10:08:50.613Z,10.23
2023-03-21T10:11:57.733Z,11.73
2023-03-21T10:15:05.307Z,13.73
2023-03-21T10:18:09.209Z,10.60
2023-03-21T10:21:37.347Z,12.77
2023-03-21T10:24:40.338Z,14.57
2023-03-21T10:27:45.179Z,14.98
2023-03-21T10:30:50.729Z,13.43
2023-03-21T10:33:55.325Z,14.82
2023-03-21T10:36:58.690Z,13.80
2023-03-21T10:40:01.933Z,12.40
2023-03-21T10:43:20.491Z,14.52
2023-03-21T10:46:24.160Z,13.85
2023-03-21T10:49:27.528Z,14.13
2023-03-21T10:52:32.163Z,13.70
2023-03-21T10:55:36.589Z,15.68
2023-03-21T10:58:44.629Z,12.75
2023-03-21T11:01:50.506Z,15.00
2023-03-21T11:04:55.423Z,19.80
2023-03-21T11:08:02.780Z,18.08
2023-03-21T11:11:06.960Z,17.00
2023-03-21T11:14:25.930Z,14.90
2023-03-21T11:17:31.180Z,13.82
2023-03-21T11:20:35.141Z,20.88
2023-03-21T11:23:41.606Z,15.80
2023-03-21T11:26:46.309Z,14.00
2023-03-21T11:29:52.108Z,12.82
2023-03-21T11:32:56.947Z,12.00
2023-03-21T11:36:01.581Z,15.98
2023-03-21T11:39:14.579Z,13.25
2023-03-21T11:42:28.575Z,15.45
2023-03-21T11:45:34.023Z,13.52
2023-03-21T11:48:39.827Z,13.65
2023-03-21T11:51:48.462Z,14.02
2023-03-21T11:55:02.423Z,11.88
2023-03-21T11:58:16.130Z,15.10
2023-03-21T12:01:24.241Z,15.43
2023-03-21T12:04:36.070Z,12.63
2023-03-21T12:07:48.655Z,14.88
2023-03-21T12:10:55.467Z,13.65
2023-03-21T12:14:03.208Z,17.15
2023-03-21T12:17:12.090Z,13.15
2023-03-21T12:20:30.462Z,15.23
2023-03-21T12:23:44.400Z,11.07
2023-03-21T12:26:53.712Z,13.02
2023-03-21T12:30:04.005Z,11.77
2023-03-21T12:33:23.766Z,13.65
2023-03-21T12:36:39.228Z,11.95
2023-03-21T12:39:42.774Z,15.70
2023-03-21T12:42:56.813Z,11.52
2023-03-21T12:46:01.811Z,17.60
2023-03-21T12:49:10.464Z,20.67
2023-03-21T12:52:14.847Z,10.43
2023-03-21T12:55:20.368Z,15.30
2023-03-21T12:58:26.020Z,15.45
2023-03-21T13:01:30.360Z,10.90
2023-03-21T13:04:38.392Z,15.02
2023-03-21T13:07:43.370Z,17.45
2023-03-21T13:10:47.275Z,16.98
2023-03-21T13:13:52.642Z,11.32
2023-03-21T13:17:00.973Z,12.55
2023-03-21T13:20:11.443Z,15.38
2023-03-21T13:23:15.093Z,10.43
2023-03-21T13:26:18.418Z,11.88
2023-03-21T13:29:24.765Z,8.40
2023-03-21T13:32:31.119Z,8.90
2023-03-21T13:35:38.420Z,9.05
2023-03-21T13:38:43.169Z,9.20
2023-03-21T13:41:48.810Z,10.77
2023-03-21T13:44:54.308Z,9.30
2023-03-21T13:47:58.874Z,7.32
2023-03-21T13:51:04.314Z,9.35
2023-03-21T13:54:18.451Z,8.85
2023-03-21T13:57:39.276Z,8.43
2023-03-21T14:00:42.766Z,10.82
2023-03-21T14:03:47.068Z,12.85
2023-03-21T14:06:55.859Z,6.75
2023-03-21T14:10:02.132Z,6.03
2023-03-21T14:13:06.699Z,8.60
2023-03-21T14:16:12.568Z,9.55
2023-03-21T14:19:16.431Z,12.20
2023-03-21T14:22:21.132Z,12.07
2023-03-21T14:25:37.053Z,7.05
2023-03-21T14:28:53.269Z,8.80
2023-03-21T14:31:57.401Z,8.05
2023-03-21T14:35:02.554Z,6.78
2023-03-21T14:38:08.863Z,6.30
2023-03-21T14:41:24.560Z,6.60
2023-03-21T14:44:28.966Z,6.63
2023-03-21T14:47:32.990Z,10.63
2023-03-21T14:50:39.433Z,11.75
2023-03-21T14:53:44.447Z,7.80
2023-03-21T14:56:49.641Z,6.03
2023-03-21T14:59:54.624Z,6.65
2023-03-21T15:02:59.842Z,8.30
2023-03-21T15:06:03.760Z,6.72
2023-03-21T15:09:11.023Z,6.32
2023-03-21T15:12:16.685Z,6.85
2023-03-21T15:15:20.760Z,7.70
2023-03-21T15:18:27.321Z,6.93
2023-03-21T15:21:34.860Z,4.57
2023-03-21T15:24:41.397Z,4.85
2023-03-21T15:27:45.301Z,6.90
2023-03-21T15:30:50.671Z,7.40
2023-03-21T15:33:54.881Z,8.35
2023-03-21T15:36:59.024Z,6.07
2023-03-21T15:40:11.227Z,10.15
2023-03-21T15:43:16.300Z,7.68
2023-03-21T15:46:33.198Z,9.15
2023-03-21T15:49:41.633Z,7.78
2023-03-21T15:52:45.210Z,5.25
2023-03-21T15:55:52.184Z,6.93
2023-03-21T15:58:57.854Z,7.90
2023-03-21T16:02:01.346Z,7.30
2023-03-21T16:05:18.482Z,7.55
2023-03-21T16:08:23.131Z,7.10
2023-03-21T16:11:29.227Z,6.68
2023-03-21T16:14:32.569Z,7.88
2023-03-21T16:17:37.869Z,6.03
2023-03-21T16:20:42.361Z,8.52
2023-03-21T16:23:45.818Z,5.57
2023-03-21T16:26:52.148Z,4.53
2023-03-21T16:29:55.649Z,3.63
2023-03-21T16:32:59.059Z,5.13
2023-03-21T16:36:02.823Z,4.40
2023-03-21T16:39:13.152Z,4.97
2023-03-21T16:42:17.888Z,4.57
2023-03-21T16:45:21.387Z,3.83
2023-03-21T16:48:24.889Z,3.97
2023-03-21T16:51:32.646Z,6.97
2023-03-21T16:54:36.115Z,3.85
2023-03-21T16:57:40.849Z,6.30
2023-03-21T17:00:44.477Z,5.45
2023-03-21T17:03:48.523Z,4.22
2023-03-21T17:06:53.251Z,7.88
2023-03-21T17:09:56.657Z,4.13
2023-03-21T17:13:01.749Z,4.78
2023-03-21T17:16:06.448Z,4.25
2023-03-21T17:19:12.775Z,5.78
2023-03-21T17:22:16.210Z,5.10
2023-03-21T17:25:20.466Z,22.52
2023-03-21T17:28:25.130Z,11.65
2023-03-21T17:31:29.890Z,11.63
2023-03-21T17:34:33.233Z,10.18
2023-03-21T17:37:38.367Z,7.47
2023-03-21T17:40:41.723Z,11.75
2023-03-21T17:43:46.606Z,10.20
2023-03-21T17:46:51.926Z,7.60
2023-03-21T17:49:55.675Z,8.02
2023-03-21T17:52:59.069Z,5.85
2023-03-21T17:56:02.574Z,7.28
2023-03-21T17:59:08.150Z,6.82
2023-03-21T18:02:11.513Z,9.73
2023-03-21T18:05:15.014Z,7.15
2023-03-21T18:08:18.356Z,8.23
2023-03-21T18:11:22.753Z,5.32
2023-03-21T18:14:29.109Z,7.40
2023-03-21T18:17:33.970Z,6.10
2023-03-21T18:20:54.453Z,4.68
2023-03-21T18:23:58.257Z,6.50
2023-03-21T18:27:02.583Z,6.50
2023-03-21T18:30:53.054Z,4.68
2023-03-21T18:33:34.043Z,7.15
2023-03-21T18:36:38.043Z,9.43
2023-03-21T18:39:44.353Z,5.97
2023-03-21T18:43:41.436Z,6.80
2023-03-21T18:46:12.907Z,10.70
2023-03-21T18:52:39.864Z,7.57
2023-03-21T18:55:46.472Z,8.02
2023-03-21T18:58:50.889Z,7.57
2023-03-21T19:01:55.638Z,13.25
2023-03-21T19:04:59.048Z,15.85
2023-03-21T19:08:02.690Z,12.57
2023-03-21T19:11:07.051Z,14.13
2023-03-21T19:14:11.682Z,9.68
2023-03-21T19:18:07.660Z,11.27
2023-03-21T19:20:39.935Z,12.25
2023-03-21T19:24:20.855Z,10.82
2023-03-21T19:27:08.530Z,13.95
2023-03-21T19:30:15.878Z,12.15
2023-03-21T19:33:21.318Z,9.23
2023-03-21T19:36:26.445Z,7.60
2023-03-21T19:39:29.872Z,10.80
2023-03-21T19:42:34.656Z,8.45
2023-03-21T19:45:38.051Z,12.02
2023-03-21T19:48:44.060Z,9.63
2023-03-21T19:51:48.368Z,7.90
2023-03-21T19:54:53.524Z,8.13
2023-03-21T19:57:56.762Z,8.60
2023-03-21T20:01:00.996Z,10.18
2023-03-21T20:04:05.815Z,7.20
2023-03-21T20:07:09.229Z,8.43
2023-03-21T20:10:12.569Z,16.88
2023-03-21T20:13:15.916Z,15.02
2023-03-21T20:16:20.435Z,7.95
2023-03-21T20:19:25.367Z,15.07
2023-03-21T20:22:58.876Z,9.82
2023-03-21T20:25:52.713Z,17.52
2023-03-21T20:29:28.004Z,12.93
2023-03-21T20:32:21.066Z,12.57
2023-03-21T20:36:05.415Z,9.15
2023-03-21T20:38:49.566Z,15.65
2023-03-21T20:41:54.598Z,12.65
2023-03-21T20:45:00.717Z,11.80
2023-03-21T20:48:04.721Z,12.02
2023-03-21T20:52:04.401Z,11.77
2023-03-21T20:54:34.836Z,9.95
2023-03-21T20:57:39.048Z,8.27
2023-03-21T21:00:42.846Z,8.48
2023-03-21T21:03:46.765Z,12.50
2023-03-21T21:06:52.291Z,13.32
2023-03-21T21:09:55.710Z,11.77
2023-03-21T21:12:58.948Z,10.48
2023-03-21T21:16:02.673Z,10.60
2023-03-21T21:19:06.121Z,11.55
2023-03-21T21:22:10.999Z,13.38
2023-03-21T21:25:14.693Z,10.82
2023-03-21T21:28:28.707Z,7.60
2023-03-21T21:31:34.510Z,8.93
2023-03-21T21:34:38.078Z,8.70
2023-03-21T21:37:42.801Z,10.80
2023-03-21T21:40:46.516Z,11.23
2023-03-21T21:43:50.296Z,9.02
2023-03-21T21:46:53.791Z,10.30
2023-03-21T21:49:57.145Z,11.60
2023-03-21T21:53:03.677Z,14.88
2023-03-21T21:56:07.589Z,8.07
2023-03-21T21:59:10.826Z,11.30
2023-03-21T22:02:16.581Z,9.57
2023-03-21T22:05:20.826Z,11.45
2023-03-21T22:08:25.489Z,14.63
2023-03-21T22:11:28.880Z,14.13
2023-03-21T22:14:32.204Z,15.00
2023-03-21T22:17:36.635Z,8.73
2023-03-21T22:20:40.435Z,10.18
2023-03-21T22:23:45.493Z,9.70
2023-03-21T22:26:48.922Z,6.72
2023-03-21T22:29:52.180Z,8.90
2023-03-21T22:33:08.593Z,8.63
2023-03-21T22:36:13.244Z,10.00
2023-03-21T22:39:18.342Z,10.57
2023-03-21T22:42:21.651Z,9.80
2023-03-21T22:45:25.003Z,7.60
2023-03-21T22:48:29.895Z,10.75
2023-03-21T22:51:33.254Z,9.35
2023-03-21T22:54:37.904Z,14.80
2023-03-21T22:57:41.397Z,8.15
2023-03-21T23:00:44.839Z,8.35
2023-03-21T23:03:48.192Z,7.78
2023-03-21T23:06:51.659Z,7.57
2023-03-21T23:09:57.793Z,5.40
2023-03-21T23:13:01.275Z,8.30
2023-03-21T23:16:07.677Z,9.50
2023-03-21T23:19:11.858Z,8.40
2023-03-21T23:22:15.416Z,8.45
2023-03-21T23:25:20.916Z,9.20
2023-03-21T23:28:25.258Z,11.30
2023-03-21T23:31:29.133Z,9.25
2023-03-21T23:34:32.609Z,9.57
2023-03-21T23:37:35.975Z,10.27
2023-03-21T23:40:41.577Z,15.18
2023-03-21T23:43:46.504Z,10.27
2023-03-21T23:46:49.907Z,8.82
2023-03-21T23:49:54.320Z,7.43
2023-03-21T23:52:58.088Z,5.82
2023-03-21T23:56:03.743Z,11.30
2023-03-21T23:59:07.119Z,5.32
